Time;durP1;ratioP1;P1;durP2;ratioP2;P2;SDS_P1;SDS_P2;PMS_P1;PMS_P2;Temp;Humidity;BMP_temperature;BMP_pressure;BME280_temperature;BME280_humidity;BME280_pressure;Samples;Min_cycle;Max_cycle;Signal;HPM_P1;HPM_P2
2023/11/01 08:41:36;;;;;;;2.67;1.17;;;;;;;17.31;77.52;97984.00;5688580;22;15104995;-85
2023/11/01 08:44:26;;;;;;;1.30;0.50;;;;;;;18.59;71.43;98056.16;6291054;22;41881;-86
2023/11/01 08:47:14;;;;;;;2.80;1.20;;;;;;;18.81;67.03;98017.94;6290059;22;42787;-87
2023/11/01 08:49:42;;;;;;;2.80;0.70;;;;;;;19.30;66.41;98066.22;6316647;22;40149;-89
2023/11/01 08:52:32;;;;;;;1.53;0.80;;;;;;;18.94;65.78;98037.06;6265404;22;43404;-86
2023/11/01 08:54:59;;;;;;;1.77;0.70;;;;;;;19.46;62.59;98055.44;6290817;22;42331;-89
2023/11/01 08:57:32;;;;;;;0.90;0.87;;;;;;;19.77;60.96;98089.66;6290949;22;43045;-86
2023/11/01 09:00:01;;;;;;;0.60;0.60;;;;;;;19.64;60.51;98080.28;6292346;22;39334;-86
2023/11/01 09:02:28;;;;;;;1.00;0.90;;;;;;;19.57;59.94;98090.03;6291612;22;41550;-87
2023/11/01 09:04:57;;;;;;;1.03;0.80;;;;;;;19.80;59.96;98073.16;6290328;22;41691;-87
2023/11/01 09:44:42;;;;;;;0.67;0.60;;;;;;;20.43;54.72;98065.84;6287272;22;39276;-89
2023/11/01 09:47:32;;;;;;;1.23;0.60;;;;;;;20.34;54.99;98061.50;6288432;22;43871;-89
2023/11/01 09:50:18;;;;;;;1.40;0.90;;;;;;;20.06;55.12;98060.31;6288308;22;44480;-86
2023/11/01 09:55:47;;;;;;;1.20;0.73;;;;;;;20.02;54.50;98038.34;6287739;22;40406;-89
2023/11/01 09:58:39;;;;;;;2.83;0.63;;;;;;;20.02;54.86;98064.38;6287860;22;41053;-89
2023/11/01 10:01:28;;;;;;;1.83;0.53;;;;;;;19.62;54.41;98058.13;6263082;22;41748;-90
2023/11/01 10:03:57;;;;;;;1.73;0.80;;;;;;;19.97;54.76;98064.88;6288182;22;41538;-88
2023/11/01 10:06:29;;;;;;;1.80;0.73;;;;;;;20.54;52.60;98074.53;6288690;22;41702;-87
2023/11/01 10:08:56;;;;;;;1.13;0.57;;;;;;;20.76;51.36;98084.50;6319667;22;41134;-90
2023/11/01 10:14:05;;;;;;;2.80;0.80;;;;;;;20.30;52.30;98080.84;6320474;22;44023;-86
2023/11/01 10:16:56;;;;;;;1.53;0.90;;;;;;;20.65;52.62;98063.34;6320412;22;39856;-86
2023/11/01 10:34:35;;;;;;;1.50;0.80;;;;;;;30.26;35.14;98148.84;6349666;22;42125;-89
2023/11/01 10:37:18;;;;;;;1.10;0.68;;;;;;;31.49;31.63;98158.44;6345782;22;42115;-94
2023/11/01 10:39:46;;;;;;;2.00;0.85;;;;;;;32.56;31.02;98151.91;6319252;22;41359;-88
2023/11/01 10:42:18;;;;;;;1.55;0.70;;;;;;;33.23;30.43;98136.00;6318536;22;40362;-89
2023/11/01 10:45:06;;;;;;;2.03;0.95;;;;;;;33.65;28.47;98152.63;6319754;22;40969;-88
2023/11/01 10:47:36;;;;;;;3.78;1.23;;;;;;;33.48;29.01;98135.47;6319738;22;41991;-88
2023/11/01 10:50:22;;;;;;;1.45;0.60;;;;;;;32.02;29.29;98094.16;6293145;22;43968;-92
2023/11/01 11:04:54;;;;;;;1.67;0.90;;;;;;;30.46;35.61;98046.50;6371598;22;43558;-88
2023/11/01 11:07:46;;;;;;;1.33;0.90;;;;;;;30.84;33.22;98024.03;6319534;22;41093;-87
2023/11/01 11:10:29;;;;;;;1.50;0.80;;;;;;;32.40;30.92;98066.75;6319103;22;42577;-88
2023/11/01 11:13:33;;;;;;;2.67;0.87;;;;;;;32.68;30.05;98078.59;6320348;22;42015;-86
2023/11/01 11:16:40;;;;;;;2.67;0.80;;;;;;;30.86;30.38;98044.59;6320384;22;42705;-91
2023/11/01 11:19:50;;;;;;;1.27;0.77;;;;;;;29.08;32.21;98020.69;6320330;22;41373;-86
2023/11/01 11:22:38;;;;;;;0.70;0.67;;;;;;;28.51;33.41;97997.63;6320738;22;42868;-85
2023/11/01 11:25:07;;;;;;;1.40;0.80;;;;;;;28.12;33.86;98032.47;6320345;22;43010;-90
2023/11/01 11:28:11;;;;;;;1.27;0.60;;;;;;;27.67;35.09;98034.66;6317940;22;46353;-88
2023/11/01 11:31:12;;;;;;;1.57;0.70;;;;;;;27.17;35.23;98002.03;6318677;22;40717;-91
2023/11/01 11:34:13;;;;;;;1.53;0.90;;;;;;;27.76;35.22;98016.97;6346281;22;42451;-89
2023/11/01 11:40:25;;;;;;;1.07;0.70;;;;;;;31.52;30.64;97999.22;6318639;22;41922;-88
2023/11/01 11:42:52;;;;;;;1.57;0.77;;;;;;;32.47;29.15;98039.16;6319025;22;40264;-90
2023/11/01 11:48:43;;;;;;;1.05;0.80;;;;;;;35.24;27.84;98001.88;6317877;22;44273;-87
2023/11/01 11:51:11;;;;;;;0.70;0.65;;;;;;;36.23;27.07;98000.34;6315784;22;43855;-88
2023/11/01 11:53:45;;;;;;;2.33;0.65;;;;;;;36.84;24.02;98024.91;6318609;22;39035;-91
2023/11/01 11:57:10;;;;;;;1.38;0.52;;;;;;;36.68;24.65;98011.16;6318582;22;41082;-89
2023/11/01 11:59:42;;;;;;;0.95;0.60;;;;;;;37.01;24.26;98003.25;6318281;22;41900;-89
2023/11/01 12:02:18;;;;;;;0.95;0.57;;;;;;;37.04;25.18;98002.69;6318828;22;42122;-91
2023/11/01 12:04:45;;;;;;;0.70;0.70;;;;;;;37.26;24.87;98000.31;6318492;22;41400;-90
2023/11/01 12:07:18;;;;;;;1.25;0.55;;;;;;;37.98;23.19;98006.78;6318936;22;41526;-88
2023/11/01 12:09:51;;;;;;;1.27;0.52;;;;;;;38.50;22.37;97991.22;6318754;22;43690;-91
2023/11/01 12:12:21;;;;;;;0.47;0.40;;;;;;;38.64;21.78;98007.97;6319876;22;41231;-90
2023/11/01 12:14:58;;;;;;;2.53;0.68;;;;;;;38.19;22.28;97984.47;6320412;22;40519;-89
2023/11/01 12:17:25;;;;;;;0.93;0.60;;;;;;;37.65;22.28;97974.56;6319957;22;41162;-88
2023/11/01 12:20:08;;;;;;;1.17;0.60;;;;;;;37.39;22.22;97987.78;6319869;22;42976;-88
2023/11/01 12:23:11;;;;;;;2.35;0.60;;;;;;;36.91;21.91;97961.91;6320033;22;42632;-87
2023/11/01 12:25:39;;;;;;;1.17;0.88;;;;;;;36.50;24.10;97944.78;6319602;22;41341;-91
2023/11/01 12:28:08;;;;;;;1.23;0.90;;;;;;;37.04;23.75;97964.84;6320247;22;42248;-88
2023/11/01 12:30:38;;;;;;;0.82;0.60;;;;;;;37.59;22.65;97978.44;6321283;22;44262;-92
2023/11/01 12:33:19;;;;;;;0.63;0.55;;;;;;;37.52;22.88;97964.97;6320183;22;41363;-90
2023/11/01 12:35:46;;;;;;;1.10;0.68;;;;;;;37.48;22.41;97974.13;6320327;22;39074;-89
2023/11/01 12:38:17;;;;;;;0.52;0.52;;;;;;;37.29;22.55;97933.47;6320287;22;41038;-89
2023/11/01 12:40:52;;;;;;;0.70;0.60;;;;;;;37.24;22.68;97963.88;6295592;22;41669;-87
2023/11/01 12:43:22;;;;;;;0.47;0.43;;;;;;;37.08;22.76;97947.72;6320802;22;43019;-88
2023/11/01 12:45:51;;;;;;;1.85;0.73;;;;;;;35.94;23.56;97959.66;6321350;22;40128;-87
2023/11/01 12:48:19;;;;;;;0.68;0.63;;;;;;;34.22;24.58;97905.44;6321300;22;42801;-88
2023/11/01 12:50:47;;;;;;;1.20;0.70;;;;;;;33.54;25.33;97922.97;6322018;22;43478;-89
2023/11/01 12:53:14;;;;;;;0.80;0.70;;;;;;;32.78;25.89;97917.75;6321498;22;43106;-90
2023/11/01 12:55:42;;;;;;;1.80;0.40;;;;;;;32.38;26.58;97904.50;6317095;22;39073;-89
2023/11/01 12:58:11;;;;;;;1.80;0.80;;;;;;;31.72;27.30;97898.22;6318598;22;41339;-90
2023/11/01 13:00:40;;;;;;;1.20;0.60;;;;;;;30.64;28.18;97865.97;6318304;22;43507;-89
2023/11/01 13:03:09;;;;;;;2.93;0.83;;;;;;;29.79;29.55;97871.47;6318548;22;41517;-87
2023/11/01 13:20:39;;;;;;;3.80;0.60;;;;;;;24.41;35.93;97797.88;6365356;22;40393;-87
2023/11/01 13:23:10;;;;;;;1.00;0.57;;;;;;;24.08;37.00;97799.75;6322963;22;42486;-88
2023/11/01 13:25:57;;;;;;;0.53;0.43;;;;;;;23.61;37.76;97763.72;6355855;22;43136;-90
2023/11/01 13:28:25;;;;;;;1.87;0.63;;;;;;;23.43;38.11;97779.63;6328847;22;41007;-85
2023/11/01 13:31:12;;;;;;;0.93;0.70;;;;;;;23.17;38.25;97746.09;6320732;22;39149;-87
2023/11/01 13:34:00;;;;;;;0.90;0.43;;;;;;;23.28;38.51;97760.88;6320853;22;41273;-87
2023/11/01 13:36:33;;;;;;;0.57;0.50;;;;;;;23.24;39.50;97762.31;6320284;22;43808;-86
2023/11/01 13:42:22;;;;;;;0.60;0.50;;;;;;;22.76;40.36;97747.97;6318775;22;38879;-86
2023/11/01 13:44:49;;;;;;;1.57;0.67;;;;;;;22.50;40.63;97748.66;6320165;22;40942;-87
2023/11/01 13:47:17;;;;;;;1.43;0.60;;;;;;;22.15;41.27;97710.00;6319588;22;42619;-87
2023/11/01 13:52:55;;;;;;;1.53;0.63;;;;;;;21.94;42.26;97742.38;6319473;22;41933;-86
2023/11/01 13:55:25;;;;;;;2.10;0.70;;;;;;;21.61;42.81;97729.47;6318171;22;42667;-87
2023/11/01 13:58:11;;;;;;;2.33;0.73;;;;;;;21.27;42.96;97716.66;6318939;22;41905;-87
2023/11/01 14:00:47;;;;;;;2.30;0.60;;;;;;;21.01;43.65;97703.75;6319877;22;41759;-86
2023/11/01 14:03:18;;;;;;;1.20;0.60;;;;;;;20.86;44.27;97716.38;6320177;22;39131;-87
2023/11/01 14:05:46;;;;;;;1.07;0.60;;;;;;;20.68;44.91;97713.25;6319219;22;42632;-87
2023/11/01 14:08:13;;;;;;;1.07;0.60;;;;;;;20.47;45.08;97699.72;6319455;22;42085;-87
2023/11/01 14:10:47;;;;;;;1.07;0.60;;;;;;;20.22;45.94;97677.63;6319170;22;42326;-88
2023/11/01 14:13:15;;;;;;;0.63;0.60;;;;;;;20.20;46.39;97695.81;6320448;22;40538;-88
2023/11/01 14:15:45;;;;;;;2.73;0.60;;;;;;;20.09;46.35;97692.56;6320319;22;41609;-87
2023/11/01 14:18:18;;;;;;;1.50;0.70;;;;;;;19.82;47.23;97663.59;6321169;22;42841;-87
2023/11/01 14:20:51;;;;;;;1.83;0.60;;;;;;;19.83;47.32;97675.19;6321301;22;41225;-87
2023/11/01 14:23:19;;;;;;;1.70;0.70;;;;;;;19.45;47.59;97621.47;6321781;22;38838;-87
2023/11/01 14:25:48;;;;;;;2.47;0.70;;;;;;;19.60;47.73;97654.59;6320339;22;43356;-87
2023/11/01 14:28:17;;;;;;;1.73;1.00;;;;;;;19.63;47.82;97661.47;6320917;22;43246;-88
2023/11/01 14:31:03;;;;;;;1.03;0.80;;;;;;;19.40;47.93;97631.94;6320226;22;41047;-88
2023/11/01 14:33:39;;;;;;;1.87;1.00;;;;;;;19.59;48.12;97663.66;6321211;22;38931;-87
2023/11/01 14:36:08;;;;;;;1.87;1.07;;;;;;;19.53;48.49;97658.19;6320724;22;41702;-87
2023/11/01 14:38:35;;;;;;;1.30;1.03;;;;;;;19.45;49.02;97653.69;6320145;22;41675;-87
2023/11/01 14:41:05;;;;;;;1.50;1.00;;;;;;;19.31;49.05;97643.72;6321122;22;42343;-87
2023/11/01 14:43:32;;;;;;;4.10;1.33;;;;;;;19.19;49.11;97626.38;6321083;22;39354;-87
2023/11/01 14:46:00;;;;;;;1.10;0.90;;;;;;;19.15;49.46;97644.72;6320827;22;40923;-87
2023/11/01 14:48:28;;;;;;;0.97;0.80;;;;;;;19.00;49.78;97631.22;6294771;22;42093;-87
2023/11/01 14:50:56;;;;;;;1.30;0.73;;;;;;;18.85;50.32;97622.28;6318314;22;44411;-84
2023/11/01 14:53:23;;;;;;;1.00;0.90;;;;;;;18.72;50.53;97627.38;6319487;22;39757;-86
2023/11/01 14:55:51;;;;;;;2.27;0.83;;;;;;;18.61;50.86;97614.38;6319373;22;40673;-86
2023/11/01 14:58:20;;;;;;;2.57;0.87;;;;;;;18.50;51.39;97617.44;6319591;22;44437;-88
2023/11/01 15:00:47;;;;;;;1.90;1.10;;;;;;;18.44;51.92;97612.75;6319306;22;41480;-88
2023/11/01 15:03:15;;;;;;;1.90;0.90;;;;;;;18.27;51.90;97599.44;6319778;22;38983;-88
2023/11/01 15:05:43;;;;;;;2.10;0.70;;;;;;;18.18;52.17;97597.78;6318915;22;42114;-88
2023/11/01 15:08:10;;;;;;;1.23;0.70;;;;;;;18.08;52.40;97586.47;6319327;22;41874;-89
2023/11/01 15:10:37;;;;;;;1.07;0.90;;;;;;;17.92;53.17;97591.91;6344930;22;41101;-89
2023/11/01 15:13:07;;;;;;;2.50;0.80;;;;;;;17.83;53.35;97591.06;6320528;22;40629;-89
2023/11/01 15:15:35;;;;;;;1.50;0.70;;;;;;;17.82;53.52;97608.16;6320507;22;42594;-88
2023/11/01 15:18:03;;;;;;;2.50;0.70;;;;;;;17.71;54.98;97602.31;6320726;22;42104;-88
2023/11/01 15:20:30;;;;;;;1.00;0.80;;;;;;;17.45;55.03;97579.25;6320428;22;41262;-87
2023/11/01 15:22:58;;;;;;;3.30;0.90;;;;;;;17.40;55.45;97592.31;6295442;22;39125;-87
2023/11/01 15:25:26;;;;;;;0.67;0.63;;;;;;;17.28;55.54;97588.31;6345987;22;43615;-87
2023/11/01 15:27:53;;;;;;;1.33;0.80;;;;;;;17.08;55.76;97579.78;6320428;22;43782;-86
2023/11/01 15:30:22;;;;;;;0.77;0.77;;;;;;;16.76;56.07;97540.53;6345718;22;43238;-89
2023/11/01 15:32:51;;;;;;;0.80;0.80;;;;;;;17.00;57.28;97579.81;6318312;22;40748;-89
2023/11/01 15:35:19;;;;;;;1.77;0.90;;;;;;;16.97;56.69;97587.31;6318571;22;41956;-88
2023/11/01 15:37:47;;;;;;;1.23;1.00;;;;;;;16.61;57.95;97542.16;6318813;22;42084;-86
2023/11/01 15:40:14;;;;;;;1.33;0.80;;;;;;;16.73;58.59;97566.75;6318270;22;41169;-88
2023/11/01 15:42:42;;;;;;;1.43;0.70;;;;;;;16.70;58.21;97575.94;6318807;22;40476;-88
2023/11/01 15:45:10;;;;;;;2.83;1.20;;;;;;;16.70;59.05;97575.94;6318792;22;42447;-89
2023/11/01 15:47:37;;;;;;;1.60;0.87;;;;;;;16.53;59.26;97564.38;6318867;22;41943;-89
2023/11/01 15:50:08;;;;;;;2.30;0.97;;;;;;;16.36;59.87;97548.47;6318681;22;41247;-89
2023/11/01 15:52:35;;;;;;;1.73;1.00;;;;;;;16.44;60.38;97568.00;6318846;22;38512;-85
2023/11/01 15:55:03;;;;;;;2.53;1.00;;;;;;;16.35;60.21;97560.13;6318077;22;43282;-88
2023/11/01 15:57:30;;;;;;;2.07;1.40;;;;;;;16.22;61.30;97557.94;6344565;22;43024;-88
2023/11/01 15:59:58;;;;;;;1.10;1.00;;;;;;;16.27;61.83;97565.47;6318618;22;42434;-88
2023/11/01 16:02:25;;;;;;;1.07;1.00;;;;;;;16.12;61.41;97563.44;6319409;22;39187;-89
2023/11/01 16:04:53;;;;;;;1.53;1.10;;;;;;;16.11;60.94;97563.59;6316495;22;41831;-89
2023/11/01 16:07:22;;;;;;;2.27;1.30;;;;;;;16.03;61.67;97559.06;6345578;22;42143;-89
2023/11/01 16:09:49;;;;;;;1.47;1.00;;;;;;;16.01;62.63;97561.06;6317567;22;42226;-89
2023/11/01 16:12:17;;;;;;;1.57;1.10;;;;;;;15.93;63.08;97553.03;6319127;22;40600;-88
2023/11/01 16:14:44;;;;;;;0.80;0.80;;;;;;;15.90;63.16;97569.34;6319831;22;40757;-88
2023/11/01 16:17:12;;;;;;;1.20;0.80;;;;;;;15.78;63.21;97559.97;6320599;22;42049;-88
2023/11/01 16:19:39;;;;;;;2.70;1.00;;;;;;;15.78;63.41;97573.31;6320006;22;41035;-88
2023/11/01 16:22:07;;;;;;;1.83;1.27;;;;;;;15.63;63.70;97572.22;6339539;22;40518;-87
2023/11/01 16:24:36;;;;;;;4.63;3.47;;;;;;;15.57;63.83;97572.88;6330539;22;42848;-88
2023/11/01 16:27:03;;;;;;;4.37;3.70;;;;;;;15.62;63.61;97590.06;6320531;22;43764;-88
2023/11/01 16:29:31;;;;;;;3.77;2.53;;;;;;;15.43;64.22;97567.09;6319597;22;42636;-87
2023/11/01 16:31:58;;;;;;;2.30;1.50;;;;;;;15.41;65.24;97563.75;6346560;22;39807;-87
2023/11/01 16:34:26;;;;;;;2.03;1.50;;;;;;;15.39;65.98;97559.53;6319231;22;42400;-88
2023/11/01 16:36:53;;;;;;;2.00;1.40;;;;;;;15.33;67.05;97550.34;6319147;22;41842;-88
2023/11/01 16:39:22;;;;;;;2.40;1.20;;;;;;;15.42;66.49;97565.41;6317113;22;41371;-89
2023/11/01 16:41:50;;;;;;;2.03;0.90;;;;;;;15.29;67.52;97548.16;6319503;22;38872;-87
2023/11/01 16:44:18;;;;;;;2.43;1.57;;;;;;;15.28;67.23;97557.16;6317761;22;43131;-87
2023/11/01 16:46:45;;;;;;;3.60;1.53;;;;;;;15.24;67.26;97559.28;6318267;22;44093;-85
2023/11/01 16:49:13;;;;;;;2.67;1.30;;;;;;;15.20;67.32;97552.59;6344301;22;42224;-85
2023/11/01 16:51:41;;;;;;;2.37;1.20;;;;;;;15.18;67.56;97551.09;6345548;22;40493;-88
2023/11/01 16:54:09;;;;;;;2.57;1.10;;;;;;;15.19;67.22;97558.94;6319557;22;43469;-88
2023/11/01 16:56:40;;;;;;;2.30;1.20;;;;;;;15.15;67.19;97567.38;6319826;22;43116;-88
2023/11/01 16:59:09;;;;;;;1.73;1.00;;;;;;;15.18;67.17;97561.75;6319271;22;40893;-88
2023/11/01 17:01:37;;;;;;;2.03;0.90;;;;;;;15.19;67.44;97561.59;6319925;22;40541;-88
2023/11/01 17:04:05;;;;;;;1.33;0.80;;;;;;;15.14;67.92;97550.56;6345624;22;41889;-88
2023/11/01 17:06:34;;;;;;;0.93;0.83;;;;;;;15.21;67.83;97574.75;6319997;22;41358;-88
2023/11/01 17:09:02;;;;;;;1.47;1.10;;;;;;;15.12;67.27;97568.53;6306600;22;42241;-88
2023/11/01 17:11:29;;;;;;;1.70;1.10;;;;;;;15.13;67.35;97569.38;6346383;22;40145;-88
2023/11/01 17:13:57;;;;;;;1.07;0.97;;;;;;;15.19;67.53;97590.09;6320106;22;40597;-87
2023/11/01 17:16:29;;;;;;;1.80;0.93;;;;;;;15.05;67.49;97572.81;6320898;22;43394;-88
2023/11/01 17:18:57;;;;;;;1.27;0.90;;;;;;;15.14;67.04;97587.88;6320085;22;41010;-88
2023/11/01 17:21:24;;;;;;;1.23;0.90;;;;;;;15.02;67.35;97573.13;6321300;22;40831;-88
2023/11/01 17:23:52;;;;;;;1.17;0.80;;;;;;;15.09;68.11;97585.66;6320617;22;40554;-88
2023/11/01 17:26:24;;;;;;;1.33;0.90;;;;;;;15.04;67.71;97589.81;6320348;22;41917;-88
2023/11/01 17:28:52;;;;;;;1.13;0.93;;;;;;;15.05;67.40;97595.00;6320622;22;43158;-87
2023/11/01 17:31:35;;;;;;;1.03;0.80;;;;;;;15.00;67.61;97589.28;6320905;22;40648;-87
2023/11/01 17:34:03;;;;;;;1.33;0.90;;;;;;;14.73;67.42;97547.56;6320121;22;40897;-87
2023/11/01 17:36:30;;;;;;;1.90;1.13;;;;;;;14.91;67.55;97560.88;6321460;22;42104;-88
2023/11/01 17:39:00;;;;;;;1.63;1.00;;;;;;;15.01;67.49;97592.78;6320036;22;42078;-87
2023/11/01 17:41:58;;;;;;;1.00;0.80;;;;;;;14.91;67.74;97571.53;6319394;22;41411;-88
2023/11/01 17:44:28;;;;;;;1.53;1.10;;;;;;;15.01;67.68;97582.13;6319293;22;42421;-88
2023/11/01 17:46:59;;;;;;;1.27;1.00;;;;;;;14.99;67.79;97570.75;6319435;22;42077;-88
2023/11/01 17:49:56;;;;;;;1.30;1.00;;;;;;;14.91;67.71;97560.03;6318830;22;42046;-88
2023/11/01 17:52:33;;;;;;;1.00;0.87;;;;;;;14.85;67.92;97550.81;6319478;22;38894;-87
2023/11/01 17:55:02;;;;;;;3.70;1.00;;;;;;;14.87;67.64;97556.84;6344571;22;42552;-88
2023/11/01 17:57:31;;;;;;;0.90;0.87;;;;;;;14.86;67.61;97562.31;6345851;22;43880;-87
2023/11/01 18:00:00;;;;;;;1.73;1.23;;;;;;;14.82;67.64;97555.66;6318783;22;43747;-88
2023/11/01 18:03:10;;;;;;;2.50;1.10;;;;;;;14.84;68.35;97565.13;6319420;22;40804;-84
2023/11/01 18:05:43;;;;;;;1.83;1.30;;;;;;;14.77;67.84;97563.25;6318790;22;40424;-88
2023/11/01 18:08:12;;;;;;;1.30;1.20;;;;;;;14.60;68.10;97541.78;6320225;22;43650;-88
2023/11/01 18:10:41;;;;;;;2.07;1.47;;;;;;;14.67;68.01;97564.19;6319600;22;40747;-88
2023/11/01 18:13:23;;;;;;;3.87;1.03;;;;;;;14.71;68.34;97565.53;6321282;22;39203;-88
2023/11/01 18:15:55;;;;;;;2.47;1.30;;;;;;;14.58;68.28;97549.13;6321052;22;43384;-87
2023/11/01 18:18:40;;;;;;;1.50;1.00;;;;;;;14.57;68.76;97550.09;6321490;22;43025;-88
2023/11/01 18:21:18;;;;;;;1.77;1.23;;;;;;;14.62;68.00;97566.44;6321389;22;45581;-87
2023/11/01 18:23:55;;;;;;;2.30;1.27;;;;;;;14.57;68.06;97562.59;6321237;22;39910;-88
2023/11/01 18:26:23;;;;;;;2.67;1.37;;;;;;;14.54;68.66;97560.22;6373131;22;41739;-88
2023/11/01 18:28:52;;;;;;;3.10;1.10;;;;;;;14.51;68.13;97564.03;6319573;22;42855;-87
2023/11/01 18:31:22;;;;;;;1.07;0.97;;;;;;;14.38;68.13;97555.53;6319741;22;43739;-88
2023/11/01 18:33:56;;;;;;;2.50;1.10;;;;;;;14.17;68.30;97528.38;6320016;22;38575;-88
2023/11/01 18:36:26;;;;;;;1.50;0.80;;;;;;;14.41;68.37;97557.94;6319844;22;43226;-87
2023/11/01 18:38:55;;;;;;;1.30;1.00;;;;;;;14.34;68.06;97541.69;6319383;22;42290;-87
2023/11/01 18:41:29;;;;;;;1.70;1.20;;;;;;;14.27;67.64;97535.28;6319757;22;42958;-88
2023/11/01 18:43:57;;;;;;;2.50;1.23;;;;;;;14.35;67.47;97558.50;6319794;22;38897;-87
2023/11/01 18:46:31;;;;;;;1.37;1.20;;;;;;;14.22;67.92;97536.72;6319646;22;40844;-87
2023/11/01 18:48:59;;;;;;;1.47;1.27;;;;;;;14.18;67.68;97535.38;6319511;22;43569;-88
2023/11/01 18:52:00;;;;;;;1.40;1.00;;;;;;;14.22;68.11;97547.38;6320517;22;41253;-88
2023/11/01 18:54:36;;;;;;;1.50;1.00;;;;;;;14.17;68.13;97555.00;6319580;22;40619;-88
2023/11/01 18:57:06;;;;;;;1.37;0.97;;;;;;;14.03;67.75;97538.53;6319417;22;42321;-87
2023/11/01 18:59:36;;;;;;;5.57;1.10;;;;;;;14.08;67.91;97555.91;6319452;22;43201;-88
2023/11/01 19:02:08;;;;;;;1.40;1.10;;;;;;;13.79;67.70;97503.66;6333903;22;43274;-88
2023/11/01 19:04:36;;;;;;;1.13;0.97;;;;;;;14.00;67.47;97544.16;6319183;22;39706;-89
2023/11/01 19:07:04;;;;;;;1.27;0.90;;;;;;;14.15;67.47;97562.28;6319487;22;42574;-88
2023/11/01 19:09:33;;;;;;;1.10;0.87;;;;;;;14.14;67.44;97560.59;6319351;22;43736;-87
2023/11/01 19:12:01;;;;;;;1.20;0.90;;;;;;;14.02;67.30;97544.84;6320431;22;42138;-87
2023/11/01 19:14:28;;;;;;;2.77;1.10;;;;;;;14.05;67.13;97545.53;6348964;22;40422;-88
2023/11/01 19:16:56;;;;;;;1.37;1.00;;;;;;;14.02;66.84;97555.50;6340715;22;41746;-88
2023/11/01 19:19:23;;;;;;;0.80;0.70;;;;;;;14.10;67.06;97565.38;6330257;22;43851;-88
2023/11/01 19:21:51;;;;;;;1.37;0.87;;;;;;;13.98;67.42;97550.59;6321158;22;41053;-89
2023/11/01 19:24:19;;;;;;;2.07;1.17;;;;;;;14.02;67.41;97563.47;6319042;22;38470;-89
2023/11/01 19:26:48;;;;;;;2.70;1.00;;;;;;;13.92;67.56;97544.06;6319288;22;40784;-89
2023/11/01 19:29:17;;;;;;;0.70;0.70;;;;;;;13.89;67.55;97536.38;6320173;22;41875;-89
2023/11/01 19:31:45;;;;;;;1.23;0.90;;;;;;;13.86;67.42;97539.31;6319752;22;43353;-87
2023/11/01 19:34:12;;;;;;;0.93;0.80;;;;;;;13.93;67.63;97548.41;6319777;22;39121;-90
2023/11/01 19:36:41;;;;;;;1.00;0.90;;;;;;;13.84;67.32;97538.66;6319583;22;40908;-87
2023/11/01 19:39:10;;;;;;;1.50;0.77;;;;;;;13.88;67.56;97545.34;6293271;22;42452;-91
2023/11/01 19:41:39;;;;;;;1.20;1.10;;;;;;;13.83;67.29;97547.63;6319799;22;42290;-88
2023/11/01 19:44:08;;;;;;;0.87;0.67;;;;;;;13.73;67.44;97557.44;6319605;22;41696;-87
2023/11/01 19:46:36;;;;;;;2.40;0.90;;;;;;;13.54;67.74;97541.59;6345831;22;41759;-89
2023/11/01 19:49:06;;;;;;;2.60;1.27;;;;;;;13.66;68.07;97573.19;6319297;22;42884;-89
2023/11/01 19:51:34;;;;;;;1.23;1.10;;;;;;;13.60;69.04;97554.28;6319794;22;44003;-88
2023/11/01 19:54:02;;;;;;;1.07;1.00;;;;;;;13.44;68.96;97536.31;6319758;22;38881;-89
2023/11/01 19:56:30;;;;;;;2.77;1.00;;;;;;;13.62;68.45;97565.63;6319623;22;40980;-88
2023/11/01 19:58:57;;;;;;;1.20;0.93;;;;;;;13.73;68.59;97570.75;6319597;22;41490;-88
2023/11/01 20:01:27;;;;;;;1.20;1.10;;;;;;;13.73;68.58;97568.09;6319897;22;43689;-89
2023/11/01 20:03:54;;;;;;;2.07;1.43;;;;;;;13.75;68.45;97571.44;6319388;22;40403;-88
2023/11/01 20:06:22;;;;;;;2.47;1.10;;;;;;;13.61;69.19;97550.66;6319524;22;42404;-89
2023/11/01 20:08:50;;;;;;;2.90;1.63;;;;;;;13.54;69.99;97546.91;6319268;22;42750;-88
2023/11/01 20:11:17;;;;;;;1.80;1.70;;;;;;;13.47;69.99;97545.84;6319386;22;43367;-88
2023/11/01 20:13:45;;;;;;;2.77;1.50;;;;;;;13.45;70.18;97534.50;6321020;22;40763;-90
2023/11/01 20:16:13;;;;;;;3.83;1.43;;;;;;;13.32;70.14;97508.25;6320676;22;44020;-90
2023/11/01 20:18:42;;;;;;;2.43;1.40;;;;;;;13.26;70.75;97503.50;6321166;22;43543;-88
2023/11/01 20:21:09;;;;;;;2.03;1.40;;;;;;;13.40;71.06;97534.09;6320926;22;42235;-88
2023/11/01 20:23:37;;;;;;;2.07;1.60;;;;;;;13.36;70.96;97524.72;6320130;22;39004;-89
2023/11/01 20:26:05;;;;;;;1.93;1.60;;;;;;;13.39;70.92;97527.09;6318503;22;40948;-88
2023/11/01 20:28:32;;;;;;;1.80;1.50;;;;;;;13.32;71.09;97507.41;6319680;22;43246;-90
2023/11/01 20:31:00;;;;;;;1.93;1.37;;;;;;;13.43;70.70;97517.84;6319179;22;42445;-90
2023/11/01 20:33:27;;;;;;;2.30;1.30;;;;;;;13.47;70.48;97524.56;6319608;22;40340;-89
2023/11/01 20:35:56;;;;;;;1.40;1.00;;;;;;;13.57;70.57;97539.47;6319247;22;43439;-89
2023/11/01 20:38:24;;;;;;;1.70;1.17;;;;;;;13.49;70.03;97518.09;6319281;22;42010;-88
2023/11/01 20:40:51;;;;;;;1.83;1.20;;;;;;;13.63;70.09;97535.38;6344506;22;42770;-90
2023/11/01 20:43:20;;;;;;;0.80;0.80;;;;;;;13.53;69.82;97510.66;6319691;22;39466;-88
2023/11/01 20:45:48;;;;;;;1.27;1.17;;;;;;;13.56;69.89;97515.69;6318914;22;42617;-89
2023/11/01 20:48:15;;;;;;;1.73;1.20;;;;;;;13.63;69.94;97508.78;6319443;22;43255;-90
2023/11/01 20:50:47;;;;;;;1.03;0.97;;;;;;;13.55;69.72;97493.56;6318902;22;41406;-89
2023/11/01 20:53:16;;;;;;;1.20;0.90;;;;;;;13.60;70.02;97493.09;6319535;22;40327;-89
2023/11/01 20:55:43;;;;;;;1.90;1.07;;;;;;;13.70;69.94;97504.56;6319026;22;40490;-89
2023/11/01 20:58:11;;;;;;;1.00;0.90;;;;;;;13.62;69.82;97502.63;6319259;22;43568;-90
2023/11/01 21:00:38;;;;;;;1.37;1.10;;;;;;;13.65;69.84;97491.69;6319055;22;42708;-89
2023/11/01 21:03:06;;;;;;;2.50;1.17;;;;;;;13.69;69.92;97488.75;6319720;22;39572;-88
2023/11/01 21:05:34;;;;;;;1.73;1.10;;;;;;;13.69;69.98;97478.94;6319154;22;40727;-88
2023/11/01 21:08:02;;;;;;;1.10;1.00;;;;;;;13.69;70.02;97476.28;6307041;22;43352;-89
2023/11/01 21:10:31;;;;;;;1.70;1.10;;;;;;;13.69;69.82;97481.59;6318915;22;43038;-88
2023/11/01 21:12:58;;;;;;;1.27;1.00;;;;;;;13.79;69.88;97509.00;6320765;22;40016;-88
2023/11/01 21:15:26;;;;;;;2.17;1.47;;;;;;;13.73;70.40;97493.59;6319922;22;42925;-91
2023/11/01 21:17:54;;;;;;;1.07;0.77;;;;;;;13.77;70.65;97497.66;6320512;22;41700;-89
2023/11/01 21:20:22;;;;;;;1.70;1.00;;;;;;;13.74;70.63;97487.28;6319858;22;41116;-91
2023/11/01 21:22:49;;;;;;;1.43;1.00;;;;;;;13.70;70.94;97477.97;6320235;22;41244;-88
2023/11/01 21:25:19;;;;;;;1.00;0.90;;;;;;;13.79;70.96;97486.88;6319667;22;44133;-88
2023/11/01 21:27:48;;;;;;;1.53;1.10;;;;;;;13.75;70.88;97475.66;6320284;22;42868;-90
2023/11/01 21:30:15;;;;;;;2.23;1.00;;;;;;;13.77;71.17;97470.19;6320136;22;41337;-89
2023/11/01 21:32:42;;;;;;;1.33;1.00;;;;;;;13.77;71.84;97473.69;6323407;22;39107;-89
2023/11/01 21:35:10;;;;;;;0.73;0.70;;;;;;;13.87;71.39;97482.47;6327501;22;43373;-88
2023/11/01 21:37:39;;;;;;;1.57;0.87;;;;;;;13.72;71.65;97460.03;6326785;22;42879;-90
2023/11/01 21:40:08;;;;;;;1.80;0.80;;;;;;;13.82;71.80;97471.44;6328922;22;42229;-90
2023/11/01 21:42:35;;;;;;;1.27;0.90;;;;;;;13.88;72.01;97475.31;6329757;22;40223;-87
2023/11/01 21:45:08;;;;;;;1.00;0.90;;;;;;;13.82;72.27;97467.94;6328366;22;40762;-90
2023/11/01 21:47:37;;;;;;;3.03;0.80;;;;;;;13.81;72.52;97463.59;6325665;22;42990;-89
2023/11/01 21:50:25;;;;;;;1.33;1.20;;;;;;;13.69;73.02;97443.53;6319804;22;42671;-89
2023/11/01 21:52:53;;;;;;;0.70;0.70;;;;;;;13.76;73.09;97464.03;6347618;22;40331;-89
2023/11/01 21:55:49;;;;;;;0.70;0.70;;;;;;;13.87;73.39;97479.78;6320439;22;41783;-88
2023/11/01 21:58:18;;;;;;;3.70;0.90;;;;;;;13.81;73.60;97467.09;6320839;22;42322;-88
2023/11/01 22:00:51;;;;;;;0.83;0.70;;;;;;;13.76;74.50;97466.72;6319956;22;42876;-90
2023/11/01 22:03:24;;;;;;;0.83;0.83;;;;;;;13.66;74.04;97444.66;6321156;22;40532;-88
2023/11/01 22:05:52;;;;;;;1.87;0.97;;;;;;;13.63;74.60;97447.59;6322146;22;42568;-90
2023/11/01 22:08:51;;;;;;;1.20;1.03;;;;;;;13.66;74.64;97456.13;6322817;22;42303;-89
2023/11/01 22:11:19;;;;;;;2.27;0.90;;;;;;;13.35;74.37;97414.06;6342237;22;41099;-87
2023/11/01 22:13:47;;;;;;;0.93;0.83;;;;;;;13.36;74.80;97436.97;6334865;22;39359;-93
2023/11/01 22:16:28;;;;;;;3.27;1.10;;;;;;;13.34;75.33;97449.59;6321452;22;41851;-90